This is the latest recevied weather packets stored in our database for station/object SP8AQK-13. If no packets are shown the sender has not sent any weather packets the latest 10 day(s).
| Time | Temp. | Humidity | Pressure | Rain* | Wind** | Luminosity | Snow |
|---|---|---|---|---|---|---|---|
| 1777846986 | 11.67° C | 61% | 1018.8 hPa | - | - | - | - |
| 1777845785 | 11.11° C | 64% | 1018.9 hPa | - | - | - | - |
| 1777844584 | 11.11° C | 65% | 1018.8 hPa | - | - | - | - |
| 1777843384 | 11.11° C | 64% | 1018.8 hPa | - | - | - | - |
| 1777842183 | 11.67° C | 62% | 1018.9 hPa | - | - | - | - |
| 1777840982 | 11.67° C | 61% | 1018.8 hPa | - | - | - | - |
| 1777839781 | 12.22° C | 60% | 1018.7 hPa | - | - | - | - |
| 1777838581 | 12.78° C | 56% | 1018.5 hPa | - | - | - | - |
| 1777837380 | 12.78° C | 56% | 1018.6 hPa | - | - | - | - |
| 1777836179 | 12.78° C | 58% | 1018.8 hPa | - | - | - | - |
| 1777834978 | 12.78° C | 59% | 1018.7 hPa | - | - | - | - |
| 1777833778 | 13.33° C | 60% | 1018.7 hPa | - | - | - | - |
| 1777832577 | 14.44° C | 57% | 1018.5 hPa | - | - | - | - |
| 1777831376 | 15.56° C | 56% | 1018.3 hPa | - | - | - | - |
| 1777828975 | 18.89° C | 45% | 1017.7 hPa | - | - | - | - |
| 1777827774 | 21.11° C | 37% | 1017.7 hPa | - | - | - | - |
| 1777825372 | 21.67° C | 35% | 1017.6 hPa | - | - | - | - |
| 1777824172 | 22.22° C | 34% | 1017.6 hPa | - | - | - | - |
| 1777822971 | 22.22° C | 34% | 1017.7 hPa | - | - | - | - |
| 1777821770 | 22.22° C | 34% | 1017.7 hPa | - | - | - | - |
| 1777820570 | 22.78° C | 35% | 1017.9 hPa | - | - | - | - |
| 1777819369 | 23.33° C | 33% | 1018.1 hPa | - | - | - | - |
| 1777818168 | 23.33° C | 33% | 1018.3 hPa | - | - | - | - |
| 1777816967 | 24.44° C | 32% | 1018.4 hPa | - | - | - | - |
| 1777814566 | 25° C | 32% | 1018.7 hPa | - | - | - | - |
* Rain since midnight (hover to see other rain measurements)
** Current wind speed in m/s (hover to see current wind gust speed)